Time;durP1;ratioP1;P1;durP2;ratioP2;P2;SDS_P1;SDS_P2;PMS_P1;PMS_P2;Temp;Humidity;BMP_temperature;BMP_pressure;BME280_temperature;BME280_humidity;BME280_pressure;Samples;Min_cycle;Max_cycle;Signal;HPM_P1;HPM_P2
2021/08/28 00:00:54;;;;;;;18.20;14.15;;;;;;;;;;1820523;78;21133;-52
2021/08/28 00:03:23;;;;;;;16.75;13.10;;;;;;;;;;1820482;79;21101;-51
2021/08/28 00:05:52;;;;;;;22.73;12.82;;;;;;;;;;1820499;78;21124;-52
2021/08/28 00:08:20;;;;;;;19.27;12.75;;;;;;;;;;1820415;79;21058;-51
2021/08/28 00:10:49;;;;;;;23.45;12.40;;;;;;;;;;1820590;79;21014;-52
2021/08/28 00:13:17;;;;;;;17.55;11.33;;;;;;;;;;1820477;78;21042;-52
2021/08/28 00:15:46;;;;;;;18.65;12.65;;;;;;;;;;1820608;79;21128;-52
2021/08/28 00:18:15;;;;;;;16.93;12.10;;;;;;;;;;1820583;79;21042;-52
2021/08/28 00:20:44;;;;;;;19.82;12.25;;;;;;;;;;1820477;79;21190;-51
2021/08/28 00:23:13;;;;;;;17.95;12.73;;;;;;;;;;1820447;79;21058;-52
2021/08/28 00:25:41;;;;;;;15.98;12.75;;;;;;;;;;1820521;79;21055;-51
2021/08/28 00:28:10;;;;;;;16.27;11.83;;;;;;;;;;1820480;79;21141;-51
2021/08/28 00:30:39;;;;;;;16.90;12.60;;;;;;;;;;1820480;79;21058;-52
2021/08/28 00:33:15;;;;;;;16.25;11.50;;;;;;;;;;1820493;79;21014;-52
2021/08/28 00:35:43;;;;;;;17.12;11.70;;;;;;;;;;1820580;79;21090;-51
2021/08/28 00:38:12;;;;;;;13.55;11.20;;;;;;;;;;1820580;79;21037;-50
2021/08/28 00:40:41;;;;;;;14.83;11.50;;;;;;;;;;1820561;79;21045;-52
2021/08/28 00:43:10;;;;;;;16.55;11.83;;;;;;;;;;1820611;79;21037;-51
2021/08/28 00:45:39;;;;;;;15.28;13.22;;;;;;;;;;1820536;79;21061;-51
2021/08/28 00:48:09;;;;;;;18.65;11.83;;;;;;;;;;1820369;79;21132;-51
2021/08/28 00:50:39;;;;;;;16.48;12.13;;;;;;;;;;1820671;78;21050;-52
2021/08/28 00:53:08;;;;;;;14.78;10.93;;;;;;;;;;1820613;79;21014;-51
2021/08/28 00:55:41;;;;;;;17.30;11.15;;;;;;;;;;1820707;79;21066;-52
2021/08/28 00:58:09;;;;;;;18.15;11.50;;;;;;;;;;1820657;78;21046;-52
2021/08/28 01:00:42;;;;;;;15.08;11.40;;;;;;;;;;1820544;79;21104;-51
2021/08/28 01:03:12;;;;;;;14.53;10.65;;;;;;;;;;1820543;79;21046;-52
2021/08/28 01:05:51;;;;;;;14.38;11.63;;;;;;;;;;1820694;79;21489;-52
2021/08/28 01:08:38;;;;;;;15.08;11.48;;;;;;;;;;1820640;78;21046;-51
2021/08/28 01:11:19;;;;;;;12.68;11.35;;;;;;;;;;1820353;77;21078;-51
2021/08/28 01:13:59;;;;;;;13.93;12.20;;;;;;;;;;1820391;78;21081;-52
2021/08/28 01:16:29;;;;;;;16.70;12.20;;;;;;;;;;1818461;78;21073;-50
2021/08/28 01:18:58;;;;;;;17.32;13.22;;;;;;;;;;1820680;79;21559;-51
2021/08/28 01:21:33;;;;;;;15.95;12.43;;;;;;;;;;1820477;78;21065;-50
2021/08/28 01:24:20;;;;;;;18.02;11.30;;;;;;;;;;1820616;79;21528;-52
2021/08/28 01:27:16;;;;;;;15.32;11.83;;;;;;;;;;1821199;78;21131;-51
2021/08/28 01:29:45;;;;;;;15.20;11.15;;;;;;;;;;1820641;79;21214;-50
2021/08/28 01:32:16;;;;;;;14.83;10.95;;;;;;;;;;1820777;79;21124;-51
2021/08/28 01:34:46;;;;;;;15.15;12.50;;;;;;;;;;1820756;79;21108;-52
2021/08/28 01:37:16;;;;;;;16.70;11.48;;;;;;;;;;1820786;78;21061;-51
2021/08/28 01:39:50;;;;;;;14.23;11.95;;;;;;;;;;1819294;78;21163;-51
2021/08/28 01:42:20;;;;;;;16.60;13.60;;;;;;;;;;1820981;78;21065;-52
2021/08/28 01:44:50;;;;;;;15.50;12.15;;;;;;;;;;1820636;79;21128;-50
2021/08/28 01:47:21;;;;;;;17.70;13.18;;;;;;;;;;1820633;79;21124;-51
2021/08/28 01:49:52;;;;;;;17.90;12.63;;;;;;;;;;1820793;79;21038;-51
2021/08/28 01:52:21;;;;;;;15.45;12.20;;;;;;;;;;1820806;79;21133;-51
2021/08/28 01:54:50;;;;;;;17.73;11.95;;;;;;;;;;1820644;79;21018;-51
2021/08/28 01:57:21;;;;;;;18.70;11.20;;;;;;;;;;1820515;78;21077;-49
2021/08/28 01:59:54;;;;;;;15.80;11.50;;;;;;;;;;1821093;78;21255;-51
2021/08/28 02:02:41;;;;;;;13.50;10.82;;;;;;;;;;1820554;79;21058;-51
2021/08/28 02:05:11;;;;;;;14.18;10.13;;;;;;;;;;1820516;79;21066;-49
2021/08/28 02:07:42;;;;;;;14.28;11.40;;;;;;;;;;1820532;79;21049;-52
2021/08/28 02:10:12;;;;;;;15.68;11.33;;;;;;;;;;1818500;78;21077;-51
2021/08/28 02:12:42;;;;;;;13.88;12.13;;;;;;;;;;1820597;79;21170;-51
2021/08/28 02:15:13;;;;;;;13.70;10.65;;;;;;;;;;1820352;78;21110;-51
2021/08/28 02:18:01;;;;;;;14.43;11.38;;;;;;;;;;1820519;78;21045;-51
2021/08/28 02:20:32;;;;;;;16.02;11.45;;;;;;;;;;1820628;78;21094;-50
2021/08/28 02:23:04;;;;;;;16.57;12.00;;;;;;;;;;1819709;78;21493;-50
2021/08/28 02:25:51;;;;;;;13.95;11.25;;;;;;;;;;1820588;77;21078;-51
2021/08/28 02:28:24;;;;;;;19.52;11.57;;;;;;;;;;1820586;79;21066;-51
2021/08/28 02:30:55;;;;;;;16.23;10.95;;;;;;;;;;1820321;79;21195;-51
2021/08/28 02:33:25;;;;;;;12.43;11.05;;;;;;;;;;1820674;78;21123;-51
2021/08/28 02:35:56;;;;;;;15.30;13.68;;;;;;;;;;1820520;78;21094;-51
2021/08/28 02:38:26;;;;;;;17.02;13.35;;;;;;;;;;1820465;78;21128;-52
2021/08/28 02:40:59;;;;;;;15.00;11.95;;;;;;;;;;1820418;79;21101;-50
2021/08/28 02:43:28;;;;;;;26.48;17.70;;;;;;;;;;1820513;79;21049;-50
2021/08/28 02:45:59;;;;;;;13.95;12.00;;;;;;;;;;1820347;78;21128;-50
2021/08/28 02:48:29;;;;;;;15.78;12.00;;;;;;;;;;1820374;79;21104;-50
2021/08/28 02:51:00;;;;;;;22.02;15.25;;;;;;;;;;1799461;79;21050;-51
2021/08/28 02:53:29;;;;;;;16.05;13.88;;;;;;;;;;1820359;79;21042;-51
2021/08/28 02:55:59;;;;;;;17.57;12.50;;;;;;;;;;1820529;79;21171;-50
2021/08/28 02:58:30;;;;;;;25.05;12.53;;;;;;;;;;1824594;78;21030;-51
2021/08/28 03:00:59;;;;;;;24.20;13.28;;;;;;;;;;1820429;79;21145;-50
2021/08/28 03:03:28;;;;;;;15.40;11.95;;;;;;;;;;1820515;78;21129;-51
2021/08/28 03:05:58;;;;;;;17.07;13.30;;;;;;;;;;1820508;79;21058;-51
2021/08/28 03:08:28;;;;;;;20.80;11.73;;;;;;;;;;1820328;78;21073;-50
2021/08/28 03:10:57;;;;;;;15.45;12.90;;;;;;;;;;1820596;79;21062;-51
2021/08/28 03:13:27;;;;;;;15.40;12.82;;;;;;;;;;1820260;78;21156;-51
2021/08/28 03:15:57;;;;;;;29.57;18.62;;;;;;;;;;1820541;79;21070;-50
2021/08/28 03:18:27;;;;;;;23.02;18.17;;;;;;;;;;1820381;79;21047;-52
2021/08/28 03:20:56;;;;;;;24.92;17.60;;;;;;;;;;1820427;79;21155;-49
2021/08/28 03:23:26;;;;;;;21.02;15.80;;;;;;;;;;1820537;79;21175;-51
2021/08/28 03:25:57;;;;;;;22.48;15.45;;;;;;;;;;1820292;78;21064;-52
2021/08/28 03:28:27;;;;;;;25.40;17.70;;;;;;;;;;1820377;79;21057;-50
2021/08/28 03:30:56;;;;;;;19.90;13.65;;;;;;;;;;1820383;79;21551;-51
2021/08/28 03:33:26;;;;;;;21.23;14.10;;;;;;;;;;1820523;79;21578;-51
2021/08/28 03:35:56;;;;;;;17.57;13.70;;;;;;;;;;1820366;78;21119;-52
2021/08/28 03:38:27;;;;;;;21.23;15.63;;;;;;;;;;1820590;79;21155;-51
2021/08/28 03:40:57;;;;;;;21.23;15.85;;;;;;;;;;1820469;78;21045;-51
2021/08/28 03:43:26;;;;;;;24.80;15.48;;;;;;;;;;1820363;79;21128;-51
2021/08/28 03:45:56;;;;;;;17.12;13.50;;;;;;;;;;1824404;78;21135;-52
2021/08/28 03:48:25;;;;;;;16.02;13.53;;;;;;;;;;1820391;79;21155;-51
2021/08/28 03:50:54;;;;;;;20.57;13.93;;;;;;;;;;1820413;79;21054;-51
2021/08/28 03:53:23;;;;;;;23.92;14.85;;;;;;;;;;1820412;79;21104;-51
2021/08/28 03:55:52;;;;;;;20.50;14.25;;;;;;;;;;1820406;78;21100;-51
2021/08/28 03:58:22;;;;;;;19.15;13.88;;;;;;;;;;1820410;79;21054;-51
2021/08/28 04:00:51;;;;;;;14.60;12.82;;;;;;;;;;1820398;79;21030;-51
2021/08/28 04:03:20;;;;;;;17.48;12.55;;;;;;;;;;1820488;79;21034;-52
2021/08/28 04:05:49;;;;;;;15.72;11.45;;;;;;;;;;1820585;79;21135;-49
2021/08/28 04:08:18;;;;;;;20.35;11.83;;;;;;;;;;1820438;79;21061;-51
2021/08/28 04:10:48;;;;;;;13.88;12.10;;;;;;;;;;1820495;78;21057;-50
2021/08/28 04:13:18;;;;;;;18.32;11.75;;;;;;;;;;1820500;78;21089;-50
2021/08/28 04:15:48;;;;;;;17.07;12.10;;;;;;;;;;1820494;79;21141;-51
2021/08/28 04:18:21;;;;;;;13.23;11.83;;;;;;;;;;1820752;78;21094;-51
2021/08/28 04:20:51;;;;;;;17.37;13.20;;;;;;;;;;1820452;78;21134;-51
2021/08/28 04:23:22;;;;;;;16.37;12.88;;;;;;;;;;1820771;78;21065;-52
2021/08/28 04:26:09;;;;;;;16.27;12.07;;;;;;;;;;1820409;79;21057;-52
2021/08/28 04:28:38;;;;;;;18.05;11.57;;;;;;;;;;1820505;79;21128;-52
2021/08/28 04:31:07;;;;;;;16.62;12.70;;;;;;;;;;1820423;79;21058;-50
2021/08/28 04:33:35;;;;;;;17.05;13.95;;;;;;;;;;1820279;79;21128;-51
2021/08/28 04:36:05;;;;;;;17.67;11.60;;;;;;;;;;1820316;79;21179;-51
2021/08/28 04:38:34;;;;;;;14.18;10.70;;;;;;;;;;1820460;79;21038;-51
2021/08/28 04:41:02;;;;;;;16.17;10.98;;;;;;;;;;1820296;79;21054;-51
2021/08/28 04:43:31;;;;;;;17.57;11.83;;;;;;;;;;1820340;79;21038;-52
2021/08/28 04:46:01;;;;;;;17.27;11.33;;;;;;;;;;1820501;78;21089;-49
2021/08/28 04:48:32;;;;;;;13.38;10.68;;;;;;;;;;1818705;78;21056;-51
2021/08/28 04:51:02;;;;;;;17.42;11.20;;;;;;;;;;1820595;78;21098;-51
2021/08/28 04:53:31;;;;;;;18.48;11.35;;;;;;;;;;1820671;79;21053;-52
2021/08/28 04:56:00;;;;;;;14.98;12.03;;;;;;;;;;1820587;79;21034;-50
2021/08/28 04:58:29;;;;;;;14.28;10.78;;;;;;;;;;1820484;79;21058;-52
2021/08/28 05:01:16;;;;;;;17.87;12.30;;;;;;;;;;1820550;79;21540;-52
2021/08/28 05:03:55;;;;;;;17.07;11.57;;;;;;;;;;1819222;78;21104;-52
2021/08/28 05:06:24;;;;;;;17.10;11.38;;;;;;;;;;1820376;79;21030;-52
2021/08/28 05:08:54;;;;;;;14.70;11.68;;;;;;;;;;1820401;79;21062;-49
2021/08/28 05:11:22;;;;;;;16.25;12.45;;;;;;;;;;1820354;79;21135;-52
2021/08/28 05:13:52;;;;;;;23.00;12.55;;;;;;;;;;1820449;79;21132;-51
2021/08/28 05:16:21;;;;;;;19.10;13.20;;;;;;;;;;1820549;79;21073;-52
2021/08/28 05:18:49;;;;;;;21.75;13.25;;;;;;;;;;1820395;79;21120;-52
2021/08/28 05:21:20;;;;;;;15.75;13.40;;;;;;;;;;1820259;78;21061;-52
2021/08/28 05:23:53;;;;;;;14.23;10.70;;;;;;;;;;1819226;78;21065;-52
2021/08/28 05:26:26;;;;;;;18.57;13.15;;;;;;;;;;1820229;77;21582;-52
2021/08/28 05:28:55;;;;;;;17.23;12.55;;;;;;;;;;1820257;79;21046;-49
2021/08/28 05:31:23;;;;;;;18.98;13.32;;;;;;;;;;1820360;79;21120;-51
2021/08/28 05:33:52;;;;;;;23.02;15.25;;;;;;;;;;1820414;79;21136;-52
2021/08/28 05:36:23;;;;;;;19.95;14.33;;;;;;;;;;1820593;78;21115;-51
2021/08/28 05:39:02;;;;;;;21.23;14.25;;;;;;;;;;1786534;78;21061;-52
2021/08/28 05:41:32;;;;;;;22.73;11.43;;;;;;;;;;1820563;79;21148;-52
2021/08/28 05:44:01;;;;;;;28.23;11.97;;;;;;;;;;1820359;79;21050;-53
2021/08/28 05:46:34;;;;;;;17.45;12.45;;;;;;;;;;1820393;78;21061;-53
2021/08/28 05:49:04;;;;;;;32.73;13.85;;;;;;;;;;1820540;78;21068;-52
2021/08/28 05:51:50;;;;;;;19.02;13.93;;;;;;;;;;1818660;78;21061;-52
2021/08/28 05:54:19;;;;;;;16.15;11.75;;;;;;;;;;1820395;79;21124;-51
2021/08/28 05:56:49;;;;;;;14.23;9.90;;;;;;;;;;1820452;79;21058;-52
2021/08/28 05:59:18;;;;;;;19.73;13.18;;;;;;;;;;1820518;78;21116;-53
2021/08/28 06:01:47;;;;;;;20.88;13.83;;;;;;;;;;1820545;79;21099;-51
2021/08/28 06:04:16;;;;;;;17.50;12.73;;;;;;;;;;1820573;79;21167;-52
2021/08/28 06:07:03;;;;;;;23.92;12.25;;;;;;;;;;1820501;79;21503;-52
2021/08/28 06:09:50;;;;;;;21.50;12.25;;;;;;;;;;1820481;79;21140;-52
2021/08/28 06:12:38;;;;;;;15.70;11.35;;;;;;;;;;1820511;79;21180;-52
2021/08/28 06:15:25;;;;;;;21.90;12.58;;;;;;;;;;1820370;79;21544;-51
2021/08/28 06:17:55;;;;;;;24.23;14.18;;;;;;;;;;1820678;78;21175;-51
2021/08/28 06:20:25;;;;;;;22.25;13.85;;;;;;;;;;1820635;79;21119;-52
2021/08/28 06:22:53;;;;;;;17.55;13.38;;;;;;;;;;1820529;79;21030;-50
2021/08/28 06:25:24;;;;;;;28.07;15.53;;;;;;;;;;1820431;78;21086;-51
2021/08/28 06:27:53;;;;;;;23.95;15.30;;;;;;;;;;1820413;79;21058;-52
2021/08/28 06:30:24;;;;;;;19.77;13.53;;;;;;;;;;1820433;78;21072;-52
2021/08/28 06:32:52;;;;;;;20.32;13.38;;;;;;;;;;1820483;79;21038;-52
2021/08/28 06:35:21;;;;;;;24.27;15.05;;;;;;;;;;1820638;79;21108;-53
2021/08/28 06:37:51;;;;;;;20.70;14.07;;;;;;;;;;1820532;78;21120;-51
2021/08/28 06:40:30;;;;;;;20.85;13.30;;;;;;;;;;1820513;78;21069;-52
2021/08/28 06:43:07;;;;;;;20.68;13.80;;;;;;;;;;1820434;77;21042;-51
2021/08/28 06:45:40;;;;;;;23.67;14.75;;;;;;;;;;1794728;78;21061;-52
2021/08/28 06:48:27;;;;;;;18.87;13.10;;;;;;;;;;1820360;79;21205;-52
2021/08/28 06:51:03;;;;;;;18.37;13.65;;;;;;;;;;1770695;78;21060;-52
2021/08/28 06:53:45;;;;;;;20.57;15.15;;;;;;;;;;1753626;78;21065;-51
2021/08/28 06:56:32;;;;;;;20.48;12.65;;;;;;;;;;1820538;79;21147;-52
2021/08/28 06:59:11;;;;;;;18.20;12.58;;;;;;;;;;1786871;78;21499;-49
2021/08/28 07:01:42;;;;;;;21.75;13.35;;;;;;;;;;1820601;78;21042;-53
2021/08/28 07:04:24;;;;;;;17.23;12.55;;;;;;;;;;1780993;78;21058;-52
2021/08/28 07:06:55;;;;;;;18.80;12.43;;;;;;;;;;1807448;78;21086;-52
2021/08/28 07:09:23;;;;;;;17.57;12.90;;;;;;;;;;1820717;79;21050;-51
2021/08/28 07:11:52;;;;;;;19.15;12.70;;;;;;;;;;1820667;79;21116;-52
2021/08/28 07:14:21;;;;;;;15.55;12.37;;;;;;;;;;1820715;79;21070;-49
2021/08/28 07:16:51;;;;;;;19.27;14.07;;;;;;;;;;1820377;79;21070;-49
2021/08/28 07:19:21;;;;;;;18.27;11.97;;;;;;;;;;1820579;79;21112;-52
2021/08/28 07:21:50;;;;;;;20.85;12.55;;;;;;;;;;1820551;79;21050;-51
2021/08/28 07:24:20;;;;;;;18.87;12.35;;;;;;;;;;1820539;79;21097;-53
2021/08/28 07:26:50;;;;;;;17.73;11.80;;;;;;;;;;1820410;79;21101;-51
2021/08/28 07:29:20;;;;;;;22.07;14.30;;;;;;;;;;1807822;78;21096;-50
2021/08/28 07:31:48;;;;;;;16.97;13.43;;;;;;;;;;1820464;79;21132;-52
2021/08/28 07:34:17;;;;;;;20.27;12.65;;;;;;;;;;1820444;79;21287;-53
2021/08/28 07:36:46;;;;;;;16.75;11.65;;;;;;;;;;1820414;79;21089;-52
2021/08/28 07:39:15;;;;;;;15.60;12.50;;;;;;;;;;1820557;79;21117;-52
2021/08/28 07:41:44;;;;;;;16.73;11.75;;;;;;;;;;1820501;79;21057;-52
2021/08/28 07:44:12;;;;;;;17.12;12.75;;;;;;;;;;1820476;79;21053;-52
2021/08/28 07:46:41;;;;;;;12.70;11.08;;;;;;;;;;1820486;79;21062;-51
2021/08/28 07:49:11;;;;;;;19.45;12.73;;;;;;;;;;1818731;78;21135;-50
2021/08/28 07:51:40;;;;;;;17.27;11.65;;;;;;;;;;1820537;79;21042;-52
2021/08/28 07:54:09;;;;;;;14.43;11.15;;;;;;;;;;1820549;79;21038;-52
2021/08/28 07:56:38;;;;;;;14.93;11.55;;;;;;;;;;1820537;79;21116;-52
2021/08/28 07:59:07;;;;;;;12.98;11.68;;;;;;;;;;1820534;79;21058;-50
2021/08/28 08:01:36;;;;;;;15.50;11.30;;;;;;;;;;1820442;79;21179;-51
2021/08/28 08:04:05;;;;;;;16.35;11.97;;;;;;;;;;1820331;79;21045;-52
2021/08/28 08:06:48;;;;;;;13.40;10.82;;;;;;;;;;1753597;78;21349;-51
2021/08/28 08:09:24;;;;;;;17.10;10.53;;;;;;;;;;1820322;77;21085;-50
2021/08/28 08:12:11;;;;;;;16.82;11.38;;;;;;;;;;1820322;79;21602;-51
2021/08/28 08:14:54;;;;;;;18.65;10.50;;;;;;;;;;1753537;78;21049;-51
2021/08/28 08:17:41;;;;;;;16.40;11.03;;;;;;;;;;1820325;79;21074;-52
2021/08/28 08:20:18;;;;;;;34.33;12.53;;;;;;;;;;1819601;78;21061;-51
2021/08/28 08:23:04;;;;;;;13.88;11.63;;;;;;;;;;1820409;79;21513;-52
2021/08/28 08:25:49;;;;;;;14.90;10.15;;;;;;;;;;1820432;77;21057;-51
2021/08/28 08:28:29;;;;;;;15.50;10.82;;;;;;;;;;1820474;77;21171;-49
2021/08/28 08:31:14;;;;;;;14.03;12.10;;;;;;;;;;1777470;79;21135;-52
2021/08/28 08:33:44;;;;;;;18.65;11.38;;;;;;;;;;1820594;79;21057;-51
2021/08/28 08:36:14;;;;;;;18.77;11.05;;;;;;;;;;1820430;78;21210;-52
2021/08/28 08:38:43;;;;;;;21.20;12.00;;;;;;;;;;1820407;79;21057;-51
2021/08/28 08:41:13;;;;;;;50.38;34.38;;;;;;;;;;1820449;79;21030;-50
2021/08/28 08:43:43;;;;;;;15.72;12.43;;;;;;;;;;1820538;78;21057;-50
2021/08/28 08:46:12;;;;;;;19.52;12.53;;;;;;;;;;1820419;79;21124;-51
2021/08/28 08:48:42;;;;;;;16.90;11.10;;;;;;;;;;1820392;79;21566;-49
2021/08/28 08:51:11;;;;;;;16.75;12.13;;;;;;;;;;1820487;79;21053;-52
2021/08/28 08:53:40;;;;;;;20.65;12.43;;;;;;;;;;1820330;79;21054;-50
2021/08/28 08:56:10;;;;;;;17.23;11.95;;;;;;;;;;1820363;78;21123;-51
2021/08/28 08:58:39;;;;;;;16.15;10.98;;;;;;;;;;1820507;79;21112;-50
2021/08/28 09:01:08;;;;;;;17.45;12.45;;;;;;;;;;1818162;79;21168;-55
2021/08/28 09:03:38;;;;;;;15.70;11.35;;;;;;;;;;1811944;79;21097;-53
2021/08/28 09:06:09;;;;;;;19.55;13.35;;;;;;;;;;1816262;78;21018;-52
2021/08/28 09:08:45;;;;;;;18.70;11.55;;;;;;;;;;1812971;79;21595;-52
2021/08/28 09:11:21;;;;;;;19.75;12.30;;;;;;;;;;1814139;79;21121;-54
2021/08/28 09:13:50;;;;;;;16.27;10.23;;;;;;;;;;1816235;79;21145;-53
2021/08/28 09:16:32;;;;;;;17.27;11.53;;;;;;;;;;1813711;78;21222;-54
2021/08/28 09:19:01;;;;;;;17.70;11.90;;;;;;;;;;1812702;79;21161;-54
2021/08/28 09:21:31;;;;;;;12.78;9.80;;;;;;;;;;1813771;79;21144;-54
2021/08/28 09:24:08;;;;;;;20.55;12.03;;;;;;;;;;1814236;79;21042;-53
2021/08/28 09:26:40;;;;;;;15.23;10.90;;;;;;;;;;1814412;79;21101;-54
2021/08/28 09:29:10;;;;;;;14.00;9.93;;;;;;;;;;1814838;79;21014;-54
2021/08/28 09:31:49;;;;;;;18.10;13.88;;;;;;;;;;1818715;79;21006;-52
2021/08/28 09:34:19;;;;;;;14.40;11.00;;;;;;;;;;1817858;78;21164;-53
2021/08/28 09:37:01;;;;;;;15.13;10.45;;;;;;;;;;1816020;79;21069;-52
2021/08/28 09:39:37;;;;;;;14.58;10.20;;;;;;;;;;1818551;79;21546;-52
2021/08/28 09:42:06;;;;;;;13.20;10.20;;;;;;;;;;1819915;79;21093;-54
2021/08/28 09:44:38;;;;;;;14.93;9.45;;;;;;;;;;1820280;79;21124;-53
2021/08/28 09:47:11;;;;;;;12.93;9.83;;;;;;;;;;1820381;78;21155;-54
2021/08/28 09:49:40;;;;;;;16.90;10.82;;;;;;;;;;1819136;79;21073;-52
2021/08/28 09:52:13;;;;;;;11.45;9.70;;;;;;;;;;1819960;79;21034;-52
2021/08/28 09:54:42;;;;;;;14.83;9.98;;;;;;;;;;1786320;80;21052;-53
2021/08/28 09:57:11;;;;;;;13.30;10.58;;;;;;;;;;1784575;80;21054;-54
2021/08/28 09:59:40;;;;;;;14.87;10.75;;;;;;;;;;1814310;79;21046;-53
2021/08/28 10:02:14;;;;;;;11.83;10.60;;;;;;;;;;1814126;79;21061;-53
2021/08/28 10:04:50;;;;;;;14.20;10.20;;;;;;;;;;1814202;79;21109;-53
2021/08/28 10:07:24;;;;;;;15.20;10.08;;;;;;;;;;1812905;79;21030;-53
2021/08/28 10:09:56;;;;;;;18.07;10.95;;;;;;;;;;1814237;79;21132;-54
2021/08/28 10:12:25;;;;;;;12.45;9.80;;;;;;;;;;1814344;79;21069;-54
2021/08/28 10:14:55;;;;;;;13.95;10.38;;;;;;;;;;1814381;79;21120;-54
2021/08/28 10:17:24;;;;;;;15.58;9.98;;;;;;;;;;1818324;79;21121;-54
2021/08/28 10:20:01;;;;;;;17.87;11.40;;;;;;;;;;1820651;79;21042;-47
2021/08/28 10:22:25;;;;;;;12.73;10.30;;;;;;;;;;1818704;78;21090;-47
2021/08/28 10:24:58;;;;;;;11.75;9.88;;;;;;;;;;1819208;79;21086;-48
2021/08/28 10:27:27;;;;;;;18.45;10.60;;;;;;;;;;1786356;80;21048;-48
2021/08/28 10:29:56;;;;;;;20.37;10.45;;;;;;;;;;1783327;80;21571;-49
2021/08/28 10:32:24;;;;;;;15.58;11.75;;;;;;;;;;1783994;80;21100;-50
2021/08/28 10:34:54;;;;;;;15.85;11.90;;;;;;;;;;1783919;80;21061;-48
2021/08/28 10:37:23;;;;;;;27.13;11.22;;;;;;;;;;1783950;80;21062;-49
2021/08/28 10:39:52;;;;;;;18.15;11.73;;;;;;;;;;1783915;80;21078;-50
2021/08/28 10:42:21;;;;;;;23.35;11.15;;;;;;;;;;1783818;80;21077;-50
2021/08/28 10:44:51;;;;;;;15.90;11.43;;;;;;;;;;1783850;80;21066;-47
2021/08/28 10:47:24;;;;;;;16.77;11.03;;;;;;;;;;1783835;80;21053;-50
2021/08/28 10:49:57;;;;;;;17.40;11.10;;;;;;;;;;1783566;80;21507;-48
2021/08/28 10:52:26;;;;;;;12.95;11.25;;;;;;;;;;1783850;80;21508;-48
2021/08/28 10:54:55;;;;;;;17.70;12.07;;;;;;;;;;1784002;80;21101;-49
2021/08/28 10:57:31;;;;;;;16.82;11.43;;;;;;;;;;1783941;80;21070;-47
2021/08/28 11:00:01;;;;;;;17.02;11.38;;;;;;;;;;1783561;80;21086;-50
2021/08/28 11:02:43;;;;;;;18.35;12.03;;;;;;;;;;1783886;80;21148;-47
2021/08/28 11:05:16;;;;;;;15.70;11.25;;;;;;;;;;1741663;80;21086;-49
2021/08/28 11:07:45;;;;;;;17.98;11.38;;;;;;;;;;1783989;80;21050;-49
2021/08/28 11:10:14;;;;;;;15.40;10.55;;;;;;;;;;1783906;80;21050;-49
2021/08/28 11:12:53;;;;;;;17.87;10.60;;;;;;;;;;1783878;80;21062;-48
2021/08/28 11:15:35;;;;;;;17.90;11.18;;;;;;;;;;1783890;80;21131;-47
2021/08/28 11:18:07;;;;;;;17.50;11.43;;;;;;;;;;1779818;80;21227;-50
2021/08/28 11:20:40;;;;;;;17.75;11.33;;;;;;;;;;1775416;81;21071;-49
2021/08/28 11:23:10;;;;;;;15.03;11.00;;;;;;;;;;1775761;81;21109;-47
2021/08/28 11:25:40;;;;;;;16.73;11.00;;;;;;;;;;1775407;81;21078;-49
2021/08/28 11:28:09;;;;;;;17.95;12.13;;;;;;;;;;1775367;81;21308;-47
2021/08/28 11:30:42;;;;;;;14.83;10.98;;;;;;;;;;1775394;81;21144;-49
2021/08/28 11:33:12;;;;;;;17.05;11.40;;;;;;;;;;1775442;81;21496;-50
2021/08/28 11:35:41;;;;;;;13.20;11.38;;;;;;;;;;1768888;81;21145;-48
2021/08/28 11:38:11;;;;;;;11.43;9.98;;;;;;;;;;1775409;81;21070;-49
2021/08/28 11:40:41;;;;;;;16.62;12.35;;;;;;;;;;1775446;81;21070;-50
2021/08/28 11:43:11;;;;;;;15.20;11.45;;;;;;;;;;1775449;81;21066;-46
2021/08/28 11:45:41;;;;;;;15.88;11.22;;;;;;;;;;1775427;81;21105;-46
2021/08/28 11:48:11;;;;;;;13.28;10.35;;;;;;;;;;1775412;81;21058;-47
2021/08/28 11:50:40;;;;;;;15.90;10.40;;;;;;;;;;1775428;81;21512;-50
2021/08/28 11:53:09;;;;;;;13.65;10.82;;;;;;;;;;1775373;81;21182;-49
2021/08/28 11:55:37;;;;;;;14.90;11.63;;;;;;;;;;1775376;81;21208;-48
2021/08/28 11:58:08;;;;;;;16.35;11.38;;;;;;;;;;1775371;81;21090;-48
2021/08/28 12:00:37;;;;;;;14.25;10.90;;;;;;;;;;1774538;80;21062;-48
2021/08/28 12:03:06;;;;;;;12.90;10.90;;;;;;;;;;1775381;81;21140;-50
2021/08/28 12:05:35;;;;;;;25.80;12.82;;;;;;;;;;1775303;81;21141;-48
2021/08/28 12:08:04;;;;;;;17.75;13.18;;;;;;;;;;1775395;81;21070;-50
2021/08/28 12:10:33;;;;;;;17.95;11.00;;;;;;;;;;1775280;81;21074;-49
2021/08/28 12:13:03;;;;;;;12.80;10.93;;;;;;;;;;1775436;81;21062;-48
2021/08/28 12:15:32;;;;;;;20.37;11.35;;;;;;;;;;1775308;81;21657;-49
2021/08/28 12:18:00;;;;;;;14.87;10.53;;;;;;;;;;1775965;80;21130;-50
2021/08/28 12:20:30;;;;;;;14.05;11.03;;;;;;;;;;1777528;80;21098;-51
2021/08/28 12:23:00;;;;;;;21.90;11.63;;;;;;;;;;1777586;80;21062;-49
2021/08/28 12:25:29;;;;;;;22.02;12.78;;;;;;;;;;1777516;81;21065;-50
2021/08/28 12:27:58;;;;;;;16.35;10.40;;;;;;;;;;1777594;81;21171;-47
2021/08/28 12:30:29;;;;;;;13.72;11.40;;;;;;;;;;1777474;81;21110;-47
2021/08/28 12:32:57;;;;;;;13.70;9.95;;;;;;;;;;1777509;80;21062;-47
2021/08/28 12:35:26;;;;;;;11.85;10.30;;;;;;;;;;1777621;81;21034;-50
2021/08/28 12:37:54;;;;;;;15.68;10.23;;;;;;;;;;1777562;81;21162;-48
2021/08/28 12:40:24;;;;;;;9.73;8.78;;;;;;;;;;1777521;81;21129;-47
2021/08/28 12:42:54;;;;;;;13.53;10.15;;;;;;;;;;1777635;81;21150;-49
2021/08/28 12:45:23;;;;;;;19.00;10.15;;;;;;;;;;1777580;81;21058;-48
2021/08/28 12:47:52;;;;;;;18.75;10.80;;;;;;;;;;1777766;81;21047;-47
2021/08/28 12:50:23;;;;;;;14.30;9.28;;;;;;;;;;1777664;81;21110;-47
2021/08/28 12:52:51;;;;;;;10.55;9.28;;;;;;;;;;1777699;81;21085;-51
2021/08/28 12:55:20;;;;;;;17.95;10.05;;;;;;;;;;1777581;81;21145;-50
2021/08/28 12:58:00;;;;;;;12.95;10.82;;;;;;;;;;1777612;81;21636;-48
2021/08/28 13:00:32;;;;;;;11.95;9.70;;;;;;;;;;1777696;81;21057;-48
2021/08/28 13:03:01;;;;;;;11.85;9.98;;;;;;;;;;1777735;81;21140;-50
2021/08/28 13:05:31;;;;;;;14.03;10.00;;;;;;;;;;1777678;81;21042;-47
2021/08/28 13:08:00;;;;;;;15.80;9.33;;;;;;;;;;1777762;80;21062;-50
2021/08/28 13:10:30;;;;;;;15.93;9.38;;;;;;;;;;1777675;81;21085;-50
2021/08/28 13:13:02;;;;;;;13.28;10.78;;;;;;;;;;1777080;80;21081;-48
2021/08/28 13:15:31;;;;;;;13.13;9.08;;;;;;;;;;1777746;81;21070;-51
2021/08/28 13:18:04;;;;;;;12.88;9.53;;;;;;;;;;1777645;81;21030;-51
2021/08/28 13:20:34;;;;;;;13.93;10.40;;;;;;;;;;1777743;80;21157;-50
2021/08/28 13:23:05;;;;;;;20.08;10.10;;;;;;;;;;1776940;80;21115;-50
2021/08/28 13:25:35;;;;;;;24.63;19.52;;;;;;;;;;1777602;81;21143;-51
2021/08/28 13:28:05;;;;;;;15.20;10.78;;;;;;;;;;1776844;79;21090;-50
2021/08/28 13:30:33;;;;;;;19.23;9.93;;;;;;;;;;1769122;80;21054;-51
2021/08/28 13:33:04;;;;;;;13.68;9.68;;;;;;;;;;1777699;81;21070;-50
2021/08/28 13:35:33;;;;;;;18.62;10.25;;;;;;;;;;1777609;81;21148;-50
2021/08/28 13:38:02;;;;;;;15.48;10.65;;;;;;;;;;1777723;81;21062;-51
2021/08/28 13:40:32;;;;;;;12.58;8.90;;;;;;;;;;1777693;81;21129;-52
2021/08/28 13:43:00;;;;;;;22.65;9.98;;;;;;;;;;1777728;81;21066;-51
2021/08/28 13:45:29;;;;;;;11.15;9.60;;;;;;;;;;1777586;81;21050;-50
2021/08/28 13:47:58;;;;;;;14.05;10.25;;;;;;;;;;1777621;81;21114;-51
2021/08/28 13:50:27;;;;;;;15.28;12.28;;;;;;;;;;1777614;81;21140;-50
2021/08/28 13:52:55;;;;;;;14.87;9.70;;;;;;;;;;1777681;80;21117;-49
2021/08/28 13:55:24;;;;;;;12.10;9.35;;;;;;;;;;1777684;81;21061;-51
2021/08/28 13:57:53;;;;;;;11.43;10.23;;;;;;;;;;1777799;81;21132;-53
2021/08/28 14:00:21;;;;;;;13.55;10.93;;;;;;;;;;1777668;81;21132;-49
2021/08/28 14:02:50;;;;;;;17.00;11.43;;;;;;;;;;1777609;81;21038;-52
2021/08/28 14:05:19;;;;;;;17.80;10.70;;;;;;;;;;1777640;81;21163;-51
2021/08/28 14:07:48;;;;;;;16.42;11.57;;;;;;;;;;1777567;81;21125;-49
2021/08/28 14:10:17;;;;;;;15.48;11.70;;;;;;;;;;1777627;81;21062;-51
2021/08/28 14:12:45;;;;;;;21.07;17.90;;;;;;;;;;1777559;81;21149;-51
2021/08/28 14:15:14;;;;;;;22.87;14.30;;;;;;;;;;1777676;81;21081;-48
2021/08/28 14:17:43;;;;;;;15.70;10.63;;;;;;;;;;1777745;81;21144;-51
2021/08/28 14:20:19;;;;;;;15.18;10.45;;;;;;;;;;1775856;81;21173;-50
2021/08/28 14:22:47;;;;;;;59.53;32.70;;;;;;;;;;1775369;81;21081;-51
2021/08/28 14:25:17;;;;;;;25.32;15.75;;;;;;;;;;1775450;81;21204;-51
2021/08/28 14:27:45;;;;;;;18.45;12.95;;;;;;;;;;1775658;81;21047;-51
2021/08/28 14:30:14;;;;;;;16.90;11.38;;;;;;;;;;1775569;81;21070;-51
2021/08/28 14:32:43;;;;;;;14.20;10.93;;;;;;;;;;1775611;81;21046;-51
2021/08/28 14:35:12;;;;;;;13.95;11.22;;;;;;;;;;1775598;81;21070;-52
2021/08/28 14:37:41;;;;;;;16.75;9.78;;;;;;;;;;1775630;81;21078;-51
2021/08/28 14:40:10;;;;;;;15.00;10.28;;;;;;;;;;1775393;81;21082;-52
2021/08/28 14:42:39;;;;;;;13.90;10.18;;;;;;;;;;1775570;81;21093;-51